aviador You're here:

LFPN Decoded Metar

TOUSSOUS-LE-NOBLE in FRANCE
Report Time2018-06-25 06:00:00
UTC Time2018-06-25 06:25:56
Flight Rules vfr VFR
Wind030° at 08 kt
W.Decomp.*RWY 07: 6.2 kt HW 5 kt LCW
W.Rank030° ranks 24
Current wind is above 030° avg. (6.2)
Visibility9999 m
Phenomena:N/A
Clouds:N/A
Expected CloudBase > 2,000 ft AGL from Temp-Dew spread
CeilingNone
Temp15°C (ISA +1)
Dew Point10°C (72% RH)
AAT12.2°C
QNH1024 hPa
Density Alt463 ft
Elevation538 ft
Report Wrong Elevation
Raw Report
LFPN 250600Z AUTO 03008KT 340V070 CAVOK 15/10 Q1024 NOSIG=

Extra information for LFPN:More info

Metar Taf Metar & Taf Last 4 Metars F.Rules Stats Wind Profile Meteogram Temp Stats Airport Information Weather charts Add Link Nearby VenuesMetar ALERT Operation Metar Decoded Social comments